Pyrites, NY (13677)

8:02 AM EDT on September 30, 2016 (GMT -0400)
Martin Tract | | Change Station

Elev 407 ft 44.60 °N, 75.18 °W | Updated 3 minutes ago

Clear
Clear
48.7 °F
Feels Like 49 °F
N
1.0
Wind Variable Wind from NNW
Gusts 6.0 mph

Today
High -- | Low -- °F
--% Chance of Precip.
Yesterday
High -- | Low -- °F
Precip. -- in
Pressure 30.49 in
Visibility 10.0 miles
Clouds Clear
Windchill 49 °F
Dew Point 45 °F
Humidity 88%
Rainfall 0.00 in
Snow Depth Not available.
6:57 AM 6:42 PM
Waning Crescent, 0% visible
METAR KMSS 301153Z AUTO 05007KT 10SM CLR 11/07 A3048 RMK AO2 SLP323 T01060072 10128 20100 51011
Pressure 30.49 in
Visibility 10.0 miles
Clouds Clear
Windchill 49 °F
Dew Point 45 °F
Humidity 88%
Rainfall 0.00 in
Snow Depth Not available.
6:57 AM 6:42 PM
Waning Crescent, 0% visible
METAR KMSS 301153Z AUTO 05007KT 10SM CLR 11/07 A3048 RMK AO2 SLP323 T01060072 10128 20100 51011

10-Day Weather Forecast

Almanac

Astronomy

Sep. 30, 2016 Rise Set
Actual Time
Civil Twilight
Nautical Twilight
Astronomical Twilight
Moon
Length of Visible Light
Length of Day
Tomorrow will be .
, % of the Moon is Illuminated

Today's Extremes

State Highs State Lows

Community

WunderPhotos

Upload Photos

1,942,706 photos uploaded!

WunderBlog® & News

Nearby

Air Quality

  Air Quality AQ Index Pollutant
Not available.

Snow Depth

Station Depth Elevation

Earthquake Activity

City Distance Mag. Time & Date
Minimum magnitude displayed is 2.5.

Coastal Water Temperatures

Place Temperature

Stations

Nearby Weather Stations

Station Location Temp. Windchill Dew Point Humidity Wind Precip. Elev Updated Type
                   

Watches & Warnings

There are currently no watches in effect.